Terminal Aerodrome Forecast
Issued by NWS

Home | Current Version | Previous Version | Graphics & Text | Print | Product List | Glossary On
Versions: 1 2 3 4 5 6 7 8 9 10 11 12 13 14 15 16 17 18 19 20 21 22 23 24 25 26 27 28 29 30 31
000
FTUS43 KGRB 261200 AAA
TAFRHI
TAF AMD
KRHI 261246Z 2613/2712 33012G20KT P6SM SCT015 OVC024
      TEMPO 2613/2616 6SM -SHSN BKN015
     FM261600 33011G16KT P6SM BKN027
     FM270200 34005KT P6SM SCT030=

USA.gov is the U.S. government's official web portal to all federal, state and local government web resources and services.